sensor_id;sensor_type;location;lat;lon;timestamp;P1;durP1;ratioP1;P2;durP2;ratioP2
20655;SDS011;10487;53.320;8.672;2023-04-09T00:01:48;2.03;;;1.30;;
20655;SDS011;10487;53.320;8.672;2023-04-09T00:04:49;1.58;;;1.23;;
20655;SDS011;10487;53.320;8.672;2023-04-09T00:07:51;2.60;;;1.55;;
20655;SDS011;10487;53.320;8.672;2023-04-09T00:10:53;1.92;;;1.38;;
20655;SDS011;10487;53.320;8.672;2023-04-09T00:13:56;2.25;;;1.17;;
20655;SDS011;10487;53.320;8.672;2023-04-09T00:16:58;1.95;;;1.30;;
20655;SDS011;10487;53.320;8.672;2023-04-09T00:20:00;2.90;;;1.40;;
20655;SDS011;10487;53.320;8.672;2023-04-09T00:23:01;2.13;;;1.52;;
20655;SDS011;10487;53.320;8.672;2023-04-09T00:26:03;3.17;;;1.80;;
20655;SDS011;10487;53.320;8.672;2023-04-09T00:29:05;2.72;;;1.85;;
20655;SDS011;10487;53.320;8.672;2023-04-09T00:32:06;3.15;;;1.92;;
20655;SDS011;10487;53.320;8.672;2023-04-09T00:35:08;3.72;;;1.70;;
20655;SDS011;10487;53.320;8.672;2023-04-09T00:38:10;1.95;;;1.27;;
20655;SDS011;10487;53.320;8.672;2023-04-09T00:41:12;1.85;;;1.30;;
20655;SDS011;10487;53.320;8.672;2023-04-09T00:44:13;2.08;;;1.23;;
20655;SDS011;10487;53.320;8.672;2023-04-09T00:47:15;1.52;;;0.90;;
20655;SDS011;10487;53.320;8.672;2023-04-09T00:50:17;2.03;;;1.10;;
20655;SDS011;10487;53.320;8.672;2023-04-09T00:53:19;1.45;;;1.08;;
20655;SDS011;10487;53.320;8.672;2023-04-09T00:56:21;2.05;;;1.33;;
20655;SDS011;10487;53.320;8.672;2023-04-09T00:59:24;2.10;;;1.33;;
20655;SDS011;10487;53.320;8.672;2023-04-09T01:02:26;2.15;;;1.30;;
20655;SDS011;10487;53.320;8.672;2023-04-09T01:15:33;3.35;;;1.70;;
20655;SDS011;10487;53.320;8.672;2023-04-09T01:18:39;1.95;;;1.30;;
20655;SDS011;10487;53.320;8.672;2023-04-09T01:21:49;2.50;;;1.17;;
20655;SDS011;10487;53.320;8.672;2023-04-09T01:28:17;2.00;;;1.38;;
20655;SDS011;10487;53.320;8.672;2023-04-09T01:31:26;2.42;;;1.45;;
20655;SDS011;10487;53.320;8.672;2023-04-09T01:34:31;2.00;;;1.30;;
20655;SDS011;10487;53.320;8.672;2023-04-09T01:37:34;1.92;;;1.10;;
20655;SDS011;10487;53.320;8.672;2023-04-09T01:40:37;2.53;;;1.60;;
20655;SDS011;10487;53.320;8.672;2023-04-09T01:43:39;2.33;;;1.50;;
20655;SDS011;10487;53.320;8.672;2023-04-09T01:46:42;2.47;;;1.60;;
20655;SDS011;10487;53.320;8.672;2023-04-09T01:49:46;2.08;;;1.30;;
20655;SDS011;10487;53.320;8.672;2023-04-09T01:52:48;2.58;;;1.55;;
20655;SDS011;10487;53.320;8.672;2023-04-09T01:55:50;1.67;;;1.17;;
20655;SDS011;10487;53.320;8.672;2023-04-09T01:58:51;2.10;;;1.10;;
20655;SDS011;10487;53.320;8.672;2023-04-09T02:01:57;2.13;;;1.30;;
20655;SDS011;10487;53.320;8.672;2023-04-09T02:05:02;2.28;;;1.33;;
20655;SDS011;10487;53.320;8.672;2023-04-09T02:08:09;2.45;;;1.30;;
20655;SDS011;10487;53.320;8.672;2023-04-09T02:11:13;1.88;;;1.30;;
20655;SDS011;10487;53.320;8.672;2023-04-09T02:14:16;2.47;;;1.33;;
20655;SDS011;10487;53.320;8.672;2023-04-09T02:17:19;2.13;;;1.45;;
20655;SDS011;10487;53.320;8.672;2023-04-09T02:20:21;2.35;;;1.30;;
20655;SDS011;10487;53.320;8.672;2023-04-09T02:23:23;1.52;;;1.20;;
20655;SDS011;10487;53.320;8.672;2023-04-09T02:26:25;2.05;;;1.27;;
20655;SDS011;10487;53.320;8.672;2023-04-09T02:29:26;1.65;;;1.15;;
20655;SDS011;10487;53.320;8.672;2023-04-09T02:32:28;1.23;;;1.08;;
20655;SDS011;10487;53.320;8.672;2023-04-09T02:35:30;1.80;;;1.02;;
20655;SDS011;10487;53.320;8.672;2023-04-09T02:38:31;1.83;;;1.02;;
20655;SDS011;10487;53.320;8.672;2023-04-09T02:41:33;1.30;;;1.05;;
20655;SDS011;10487;53.320;8.672;2023-04-09T02:44:34;1.35;;;0.98;;
20655;SDS011;10487;53.320;8.672;2023-04-09T02:47:36;2.28;;;1.05;;
20655;SDS011;10487;53.320;8.672;2023-04-09T02:50:38;2.25;;;1.10;;
20655;SDS011;10487;53.320;8.672;2023-04-09T02:53:39;2.20;;;1.27;;
20655;SDS011;10487;53.320;8.672;2023-04-09T02:56:41;1.30;;;0.82;;
20655;SDS011;10487;53.320;8.672;2023-04-09T02:59:43;1.63;;;1.00;;
20655;SDS011;10487;53.320;8.672;2023-04-09T03:02:45;2.40;;;1.13;;
20655;SDS011;10487;53.320;8.672;2023-04-09T03:05:47;1.48;;;1.02;;
20655;SDS011;10487;53.320;8.672;2023-04-09T03:08:49;1.85;;;1.17;;
20655;SDS011;10487;53.320;8.672;2023-04-09T03:11:51;1.48;;;1.02;;
20655;SDS011;10487;53.320;8.672;2023-04-09T03:14:52;1.63;;;0.95;;
20655;SDS011;10487;53.320;8.672;2023-04-09T03:17:54;1.92;;;0.90;;
20655;SDS011;10487;53.320;8.672;2023-04-09T03:20:56;1.23;;;0.82;;
20655;SDS011;10487;53.320;8.672;2023-04-09T03:23:57;2.20;;;1.33;;
20655;SDS011;10487;53.320;8.672;2023-04-09T03:26:59;1.95;;;0.98;;
20655;SDS011;10487;53.320;8.672;2023-04-09T03:30:00;1.83;;;0.93;;
20655;SDS011;10487;53.320;8.672;2023-04-09T03:33:03;1.88;;;1.20;;
20655;SDS011;10487;53.320;8.672;2023-04-09T03:36:05;2.97;;;1.27;;
20655;SDS011;10487;53.320;8.672;2023-04-09T03:39:06;1.80;;;1.20;;
20655;SDS011;10487;53.320;8.672;2023-04-09T03:42:08;1.55;;;1.20;;
20655;SDS011;10487;53.320;8.672;2023-04-09T03:45:10;1.58;;;1.00;;
20655;SDS011;10487;53.320;8.672;2023-04-09T03:48:11;1.70;;;1.20;;
20655;SDS011;10487;53.320;8.672;2023-04-09T03:51:16;1.95;;;1.10;;
20655;SDS011;10487;53.320;8.672;2023-04-09T03:54:18;2.05;;;1.30;;
20655;SDS011;10487;53.320;8.672;2023-04-09T03:57:20;1.73;;;1.05;;
20655;SDS011;10487;53.320;8.672;2023-04-09T04:00:21;2.40;;;1.40;;
20655;SDS011;10487;53.320;8.672;2023-04-09T04:03:23;2.80;;;1.55;;
20655;SDS011;10487;53.320;8.672;2023-04-09T04:06:24;1.52;;;1.10;;
20655;SDS011;10487;53.320;8.672;2023-04-09T04:09:27;1.30;;;1.00;;
20655;SDS011;10487;53.320;8.672;2023-04-09T04:12:29;1.25;;;0.77;;
20655;SDS011;10487;53.320;8.672;2023-04-09T04:15:31;1.17;;;0.90;;
20655;SDS011;10487;53.320;8.672;2023-04-09T04:18:33;2.13;;;1.08;;
20655;SDS011;10487;53.320;8.672;2023-04-09T04:21:35;2.45;;;1.70;;
20655;SDS011;10487;53.320;8.672;2023-04-09T04:24:37;2.90;;;1.50;;
20655;SDS011;10487;53.320;8.672;2023-04-09T04:27:41;2.45;;;1.50;;
20655;SDS011;10487;53.320;8.672;2023-04-09T04:30:43;1.88;;;1.35;;
20655;SDS011;10487;53.320;8.672;2023-04-09T04:33:45;1.92;;;1.10;;
20655;SDS011;10487;53.320;8.672;2023-04-09T04:36:46;1.80;;;1.10;;
20655;SDS011;10487;53.320;8.672;2023-04-09T04:39:48;1.88;;;1.23;;
20655;SDS011;10487;53.320;8.672;2023-04-09T04:42:50;1.40;;;1.10;;
20655;SDS011;10487;53.320;8.672;2023-04-09T04:45:51;2.53;;;1.27;;
20655;SDS011;10487;53.320;8.672;2023-04-09T04:48:53;1.73;;;0.95;;
20655;SDS011;10487;53.320;8.672;2023-04-09T04:51:55;1.65;;;0.93;;
20655;SDS011;10487;53.320;8.672;2023-04-09T04:54:57;1.23;;;0.90;;
20655;SDS011;10487;53.320;8.672;2023-04-09T04:57:58;1.58;;;0.90;;
20655;SDS011;10487;53.320;8.672;2023-04-09T05:01:00;1.60;;;1.08;;
20655;SDS011;10487;53.320;8.672;2023-04-09T05:04:02;2.05;;;1.17;;
20655;SDS011;10487;53.320;8.672;2023-04-09T05:07:04;2.17;;;1.40;;
20655;SDS011;10487;53.320;8.672;2023-04-09T05:10:06;1.95;;;1.33;;
20655;SDS011;10487;53.320;8.672;2023-04-09T05:13:08;2.13;;;1.33;;
20655;SDS011;10487;53.320;8.672;2023-04-09T05:16:16;2.53;;;1.20;;
20655;SDS011;10487;53.320;8.672;2023-04-09T05:19:19;2.00;;;1.17;;
20655;SDS011;10487;53.320;8.672;2023-04-09T05:22:21;1.45;;;0.90;;
20655;SDS011;10487;53.320;8.672;2023-04-09T05:25:24;1.95;;;1.13;;
20655;SDS011;10487;53.320;8.672;2023-04-09T05:28:25;2.67;;;1.20;;
20655;SDS011;10487;53.320;8.672;2023-04-09T05:31:27;1.52;;;1.02;;
20655;SDS011;10487;53.320;8.672;2023-04-09T05:34:28;1.50;;;0.90;;
20655;SDS011;10487;53.320;8.672;2023-04-09T05:37:30;1.10;;;0.70;;
20655;SDS011;10487;53.320;8.672;2023-04-09T05:40:32;0.65;;;0.65;;
20655;SDS011;10487;53.320;8.672;2023-04-09T05:43:33;1.30;;;0.80;;
20655;SDS011;10487;53.320;8.672;2023-04-09T05:46:35;0.75;;;0.60;;
20655;SDS011;10487;53.320;8.672;2023-04-09T05:49:37;0.50;;;0.40;;
20655;SDS011;10487;53.320;8.672;2023-04-09T05:52:38;1.05;;;0.70;;
20655;SDS011;10487;53.320;8.672;2023-04-09T05:55:40;0.80;;;0.55;;
20655;SDS011;10487;53.320;8.672;2023-04-09T05:58:42;1.05;;;0.50;;
20655;SDS011;10487;53.320;8.672;2023-04-09T06:01:43;0.88;;;0.70;;
20655;SDS011;10487;53.320;8.672;2023-04-09T06:04:45;0.90;;;0.60;;
20655;SDS011;10487;53.320;8.672;2023-04-09T06:07:46;0.63;;;0.60;;
20655;SDS011;10487;53.320;8.672;2023-04-09T06:10:48;1.08;;;0.70;;
20655;SDS011;10487;53.320;8.672;2023-04-09T06:13:50;0.80;;;0.60;;
20655;SDS011;10487;53.320;8.672;2023-04-09T06:16:52;0.50;;;0.50;;
20655;SDS011;10487;53.320;8.672;2023-04-09T06:19:53;0.85;;;0.55;;
20655;SDS011;10487;53.320;8.672;2023-04-09T06:22:55;0.57;;;0.50;;
20655;SDS011;10487;53.320;8.672;2023-04-09T06:25:57;0.60;;;0.60;;
20655;SDS011;10487;53.320;8.672;2023-04-09T06:28:58;0.50;;;0.47;;
20655;SDS011;10487;53.320;8.672;2023-04-09T06:32:00;0.65;;;0.45;;
20655;SDS011;10487;53.320;8.672;2023-04-09T06:35:02;0.60;;;0.50;;
20655;SDS011;10487;53.320;8.672;2023-04-09T06:38:04;0.90;;;0.70;;
20655;SDS011;10487;53.320;8.672;2023-04-09T06:41:06;0.85;;;0.60;;
20655;SDS011;10487;53.320;8.672;2023-04-09T06:44:09;0.40;;;0.40;;
20655;SDS011;10487;53.320;8.672;2023-04-09T06:47:10;1.08;;;0.68;;
20655;SDS011;10487;53.320;8.672;2023-04-09T06:50:12;0.98;;;0.60;;
20655;SDS011;10487;53.320;8.672;2023-04-09T06:53:14;0.50;;;0.50;;
20655;SDS011;10487;53.320;8.672;2023-04-09T06:56:16;0.75;;;0.55;;
20655;SDS011;10487;53.320;8.672;2023-04-09T06:59:18;0.70;;;0.60;;
20655;SDS011;10487;53.320;8.672;2023-04-09T07:02:19;0.52;;;0.50;;
20655;SDS011;10487;53.320;8.672;2023-04-09T07:05:21;0.40;;;0.40;;
20655;SDS011;10487;53.320;8.672;2023-04-09T07:08:23;0.55;;;0.40;;
20655;SDS011;10487;53.320;8.672;2023-04-09T07:11:25;0.55;;;0.30;;
20655;SDS011;10487;53.320;8.672;2023-04-09T07:14:27;0.47;;;0.40;;
20655;SDS011;10487;53.320;8.672;2023-04-09T07:17:32;0.80;;;0.60;;
20655;SDS011;10487;53.320;8.672;2023-04-09T07:20:34;0.65;;;0.63;;
20655;SDS011;10487;53.320;8.672;2023-04-09T07:23:36;0.50;;;0.38;;
20655;SDS011;10487;53.320;8.672;2023-04-09T07:26:37;0.55;;;0.55;;
20655;SDS011;10487;53.320;8.672;2023-04-09T07:29:42;0.73;;;0.68;;
20655;SDS011;10487;53.320;8.672;2023-04-09T07:32:44;0.60;;;0.50;;
20655;SDS011;10487;53.320;8.672;2023-04-09T07:35:46;0.75;;;0.60;;
20655;SDS011;10487;53.320;8.672;2023-04-09T07:38:48;0.70;;;0.60;;
20655;SDS011;10487;53.320;8.672;2023-04-09T07:41:49;1.00;;;0.90;;
20655;SDS011;10487;53.320;8.672;2023-04-09T07:44:51;1.73;;;0.90;;
20655;SDS011;10487;53.320;8.672;2023-04-09T07:47:53;1.65;;;0.95;;
20655;SDS011;10487;53.320;8.672;2023-04-09T07:50:55;0.98;;;0.68;;
20655;SDS011;10487;53.320;8.672;2023-04-09T07:53:57;1.20;;;0.77;;
20655;SDS011;10487;53.320;8.672;2023-04-09T07:56:59;1.88;;;0.77;;
20655;SDS011;10487;53.320;8.672;2023-04-09T08:00:02;1.70;;;0.80;;
20655;SDS011;10487;53.320;8.672;2023-04-09T08:03:04;1.23;;;1.00;;
20655;SDS011;10487;53.320;8.672;2023-04-09T08:06:06;1.55;;;1.00;;
20655;SDS011;10487;53.320;8.672;2023-04-09T08:09:07;1.48;;;0.70;;
20655;SDS011;10487;53.320;8.672;2023-04-09T08:12:09;1.45;;;1.00;;
20655;SDS011;10487;53.320;8.672;2023-04-09T08:15:11;0.70;;;0.60;;
20655;SDS011;10487;53.320;8.672;2023-04-09T08:18:12;1.08;;;0.50;;
20655;SDS011;10487;53.320;8.672;2023-04-09T08:21:14;0.50;;;0.40;;
20655;SDS011;10487;53.320;8.672;2023-04-09T08:24:16;2.15;;;0.90;;
20655;SDS011;10487;53.320;8.672;2023-04-09T08:27:18;1.45;;;0.80;;
20655;SDS011;10487;53.320;8.672;2023-04-09T08:30:20;0.95;;;0.70;;
20655;SDS011;10487;53.320;8.672;2023-04-09T08:33:22;0.80;;;0.80;;
20655;SDS011;10487;53.320;8.672;2023-04-09T08:36:23;0.70;;;0.60;;
20655;SDS011;10487;53.320;8.672;2023-04-09T08:39:26;0.68;;;0.52;;
20655;SDS011;10487;53.320;8.672;2023-04-09T08:42:28;0.90;;;0.73;;
20655;SDS011;10487;53.320;8.672;2023-04-09T08:45:32;1.40;;;1.00;;
20655;SDS011;10487;53.320;8.672;2023-04-09T08:48:33;1.20;;;0.93;;
20655;SDS011;10487;53.320;8.672;2023-04-09T08:51:35;2.50;;;1.48;;
20655;SDS011;10487;53.320;8.672;2023-04-09T08:54:37;1.48;;;1.25;;
20655;SDS011;10487;53.320;8.672;2023-04-09T08:57:38;1.30;;;0.77;;
20655;SDS011;10487;53.320;8.672;2023-04-09T09:00:41;1.15;;;0.82;;
20655;SDS011;10487;53.320;8.672;2023-04-09T09:03:52;1.00;;;0.70;;
20655;SDS011;10487;53.320;8.672;2023-04-09T09:07:04;1.20;;;1.00;;
20655;SDS011;10487;53.320;8.672;2023-04-09T09:10:07;1.10;;;0.90;;
20655;SDS011;10487;53.320;8.672;2023-04-09T09:13:27;0.98;;;0.68;;
20655;SDS011;10487;53.320;8.672;2023-04-09T09:16:28;1.00;;;0.77;;
20655;SDS011;10487;53.320;8.672;2023-04-09T09:19:32;1.15;;;0.98;;
20655;SDS011;10487;53.320;8.672;2023-04-09T09:22:47;0.80;;;0.70;;
20655;SDS011;10487;53.320;8.672;2023-04-09T09:25:55;1.75;;;0.90;;
20655;SDS011;10487;53.320;8.672;2023-04-09T09:28:57;1.67;;;1.33;;
20655;SDS011;10487;53.320;8.672;2023-04-09T09:32:04;2.03;;;1.20;;
20655;SDS011;10487;53.320;8.672;2023-04-09T09:35:13;1.67;;;1.30;;
20655;SDS011;10487;53.320;8.672;2023-04-09T09:38:15;1.30;;;1.02;;
20655;SDS011;10487;53.320;8.672;2023-04-09T09:41:18;1.08;;;0.85;;
20655;SDS011;10487;53.320;8.672;2023-04-09T09:44:30;1.65;;;1.08;;
20655;SDS011;10487;53.320;8.672;2023-04-09T09:47:32;0.65;;;0.60;;
20655;SDS011;10487;53.320;8.672;2023-04-09T09:50:35;1.42;;;1.00;;
20655;SDS011;10487;53.320;8.672;2023-04-09T09:53:40;1.30;;;1.20;;
20655;SDS011;10487;53.320;8.672;2023-04-09T09:56:44;1.15;;;0.80;;
20655;SDS011;10487;53.320;8.672;2023-04-09T09:59:49;1.40;;;1.10;;
20655;SDS011;10487;53.320;8.672;2023-04-09T10:02:58;1.42;;;1.05;;
20655;SDS011;10487;53.320;8.672;2023-04-09T10:06:12;1.17;;;0.75;;
20655;SDS011;10487;53.320;8.672;2023-04-09T10:09:14;1.00;;;0.80;;
20655;SDS011;10487;53.320;8.672;2023-04-09T10:12:16;1.50;;;1.10;;
20655;SDS011;10487;53.320;8.672;2023-04-09T10:15:22;1.10;;;0.80;;
20655;SDS011;10487;53.320;8.672;2023-04-09T10:18:24;0.77;;;0.70;;
20655;SDS011;10487;53.320;8.672;2023-04-09T10:21:39;0.98;;;0.85;;
20655;SDS011;10487;53.320;8.672;2023-04-09T10:24:45;1.10;;;0.90;;
20655;SDS011;10487;53.320;8.672;2023-04-09T10:27:59;1.75;;;1.00;;
20655;SDS011;10487;53.320;8.672;2023-04-09T10:31:05;1.33;;;0.90;;
20655;SDS011;10487;53.320;8.672;2023-04-09T10:34:09;0.80;;;0.60;;
20655;SDS011;10487;53.320;8.672;2023-04-09T10:37:14;0.75;;;0.65;;
20655;SDS011;10487;53.320;8.672;2023-04-09T10:40:20;1.55;;;1.17;;
20655;SDS011;10487;53.320;8.672;2023-04-09T10:43:22;1.15;;;0.93;;
20655;SDS011;10487;53.320;8.672;2023-04-09T10:46:25;1.35;;;0.98;;
20655;SDS011;10487;53.320;8.672;2023-04-09T10:49:35;0.88;;;0.60;;
20655;SDS011;10487;53.320;8.672;2023-04-09T10:52:39;0.68;;;0.60;;
20655;SDS011;10487;53.320;8.672;2023-04-09T10:55:42;1.42;;;1.10;;
20655;SDS011;10487;53.320;8.672;2023-04-09T10:58:50;0.93;;;0.80;;
20655;SDS011;10487;53.320;8.672;2023-04-09T11:01:52;2.80;;;1.80;;
20655;SDS011;10487;53.320;8.672;2023-04-09T11:08:20;1.77;;;1.25;;
20655;SDS011;10487;53.320;8.672;2023-04-09T11:11:26;1.02;;;0.80;;
20655;SDS011;10487;53.320;8.672;2023-04-09T11:14:28;1.88;;;0.90;;
20655;SDS011;10487;53.320;8.672;2023-04-09T11:17:30;1.30;;;1.00;;
20655;SDS011;10487;53.320;8.672;2023-04-09T11:20:37;1.15;;;1.05;;
20655;SDS011;10487;53.320;8.672;2023-04-09T11:23:38;1.20;;;1.08;;
20655;SDS011;10487;53.320;8.672;2023-04-09T11:26:40;1.17;;;1.00;;
20655;SDS011;10487;53.320;8.672;2023-04-09T11:29:42;1.05;;;0.90;;
20655;SDS011;10487;53.320;8.672;2023-04-09T11:32:43;1.13;;;0.90;;
20655;SDS011;10487;53.320;8.672;2023-04-09T11:35:46;1.73;;;1.10;;
20655;SDS011;10487;53.320;8.672;2023-04-09T11:38:48;1.50;;;1.27;;
20655;SDS011;10487;53.320;8.672;2023-04-09T11:41:52;1.15;;;0.95;;
20655;SDS011;10487;53.320;8.672;2023-04-09T11:44:53;0.82;;;0.60;;
20655;SDS011;10487;53.320;8.672;2023-04-09T11:47:55;0.60;;;0.60;;
20655;SDS011;10487;53.320;8.672;2023-04-09T11:50:57;1.95;;;1.10;;
20655;SDS011;10487;53.320;8.672;2023-04-09T11:54:03;1.05;;;0.75;;
20655;SDS011;10487;53.320;8.672;2023-04-09T11:57:06;0.70;;;0.60;;
20655;SDS011;10487;53.320;8.672;2023-04-09T12:00:09;1.48;;;1.00;;
20655;SDS011;10487;53.320;8.672;2023-04-09T12:03:12;1.15;;;0.80;;
20655;SDS011;10487;53.320;8.672;2023-04-09T12:06:17;0.80;;;0.70;;
20655;SDS011;10487;53.320;8.672;2023-04-09T12:09:21;0.77;;;0.70;;
20655;SDS011;10487;53.320;8.672;2023-04-09T12:12:23;1.23;;;1.00;;
20655;SDS011;10487;53.320;8.672;2023-04-09T12:15:25;1.17;;;0.88;;
20655;SDS011;10487;53.320;8.672;2023-04-09T12:18:34;0.85;;;0.80;;
20655;SDS011;10487;53.320;8.672;2023-04-09T12:21:50;1.00;;;0.90;;
20655;SDS011;10487;53.320;8.672;2023-04-09T12:24:55;1.45;;;1.00;;
20655;SDS011;10487;53.320;8.672;2023-04-09T12:27:56;1.33;;;1.05;;
20655;SDS011;10487;53.320;8.672;2023-04-09T12:30:58;1.38;;;1.08;;
20655;SDS011;10487;53.320;8.672;2023-04-09T12:34:00;1.30;;;0.90;;
20655;SDS011;10487;53.320;8.672;2023-04-09T12:37:02;1.30;;;0.98;;
20655;SDS011;10487;53.320;8.672;2023-04-09T12:40:04;0.98;;;0.80;;
20655;SDS011;10487;53.320;8.672;2023-04-09T12:43:06;1.05;;;0.73;;
20655;SDS011;10487;53.320;8.672;2023-04-09T12:46:08;0.47;;;0.47;;
20655;SDS011;10487;53.320;8.672;2023-04-09T12:49:10;0.50;;;0.40;;
20655;SDS011;10487;53.320;8.672;2023-04-09T12:52:12;0.85;;;0.65;;
20655;SDS011;10487;53.320;8.672;2023-04-09T12:55:13;1.05;;;0.60;;
20655;SDS011;10487;53.320;8.672;2023-04-09T12:58:15;0.95;;;0.60;;
20655;SDS011;10487;53.320;8.672;2023-04-09T13:01:17;0.60;;;0.50;;
20655;SDS011;10487;53.320;8.672;2023-04-09T13:04:18;0.80;;;0.77;;
20655;SDS011;10487;53.320;8.672;2023-04-09T13:07:20;1.10;;;0.88;;
20655;SDS011;10487;53.320;8.672;2023-04-09T13:10:23;0.70;;;0.60;;
20655;SDS011;10487;53.320;8.672;2023-04-09T13:13:24;0.55;;;0.50;;
20655;SDS011;10487;53.320;8.672;2023-04-09T13:16:26;0.45;;;0.40;;
20655;SDS011;10487;53.320;8.672;2023-04-09T13:19:28;1.10;;;0.90;;
20655;SDS011;10487;53.320;8.672;2023-04-09T13:22:30;0.65;;;0.65;;
20655;SDS011;10487;53.320;8.672;2023-04-09T13:25:31;0.90;;;0.70;;
20655;SDS011;10487;53.320;8.672;2023-04-09T13:28:33;0.95;;;0.70;;
20655;SDS011;10487;53.320;8.672;2023-04-09T13:31:35;0.82;;;0.65;;
20655;SDS011;10487;53.320;8.672;2023-04-09T13:34:37;0.40;;;0.40;;
20655;SDS011;10487;53.320;8.672;2023-04-09T13:37:39;0.93;;;0.82;;
20655;SDS011;10487;53.320;8.672;2023-04-09T13:40:41;1.00;;;0.90;;
20655;SDS011;10487;53.320;8.672;2023-04-09T13:43:42;0.90;;;0.80;;
20655;SDS011;10487;53.320;8.672;2023-04-09T13:46:45;1.00;;;0.90;;
20655;SDS011;10487;53.320;8.672;2023-04-09T13:49:46;0.80;;;0.80;;
20655;SDS011;10487;53.320;8.672;2023-04-09T13:52:48;1.00;;;0.90;;
20655;SDS011;10487;53.320;8.672;2023-04-09T13:55:50;1.30;;;1.00;;
20655;SDS011;10487;53.320;8.672;2023-04-09T13:58:51;1.10;;;0.80;;
20655;SDS011;10487;53.320;8.672;2023-04-09T14:01:53;0.77;;;0.70;;
20655;SDS011;10487;53.320;8.672;2023-04-09T14:04:55;1.30;;;0.95;;
20655;SDS011;10487;53.320;8.672;2023-04-09T14:07:57;0.95;;;0.75;;
20655;SDS011;10487;53.320;8.672;2023-04-09T14:10:59;0.60;;;0.50;;
20655;SDS011;10487;53.320;8.672;2023-04-09T14:14:01;0.60;;;0.50;;
20655;SDS011;10487;53.320;8.672;2023-04-09T14:17:02;0.30;;;0.30;;
20655;SDS011;10487;53.320;8.672;2023-04-09T14:20:04;0.45;;;0.40;;
20655;SDS011;10487;53.320;8.672;2023-04-09T14:23:06;0.50;;;0.40;;
20655;SDS011;10487;53.320;8.672;2023-04-09T14:26:08;0.57;;;0.40;;
20655;SDS011;10487;53.320;8.672;2023-04-09T14:29:10;0.70;;;0.50;;
20655;SDS011;10487;53.320;8.672;2023-04-09T14:32:11;0.40;;;0.40;;
20655;SDS011;10487;53.320;8.672;2023-04-09T14:35:13;0.80;;;0.75;;
20655;SDS011;10487;53.320;8.672;2023-04-09T14:38:14;1.10;;;0.80;;
20655;SDS011;10487;53.320;8.672;2023-04-09T14:41:16;1.00;;;0.85;;
20655;SDS011;10487;53.320;8.672;2023-04-09T14:44:18;0.50;;;0.50;;
20655;SDS011;10487;53.320;8.672;2023-04-09T14:47:19;0.30;;;0.30;;
20655;SDS011;10487;53.320;8.672;2023-04-09T14:50:21;0.47;;;0.40;;
20655;SDS011;10487;53.320;8.672;2023-04-09T14:53:23;0.45;;;0.40;;
20655;SDS011;10487;53.320;8.672;2023-04-09T14:56:24;0.40;;;0.40;;
20655;SDS011;10487;53.320;8.672;2023-04-09T14:59:26;0.22;;;0.22;;
20655;SDS011;10487;53.320;8.672;2023-04-09T15:02:28;0.70;;;0.60;;
20655;SDS011;10487;53.320;8.672;2023-04-09T15:05:29;0.35;;;0.30;;
20655;SDS011;10487;53.320;8.672;2023-04-09T15:08:31;0.30;;;0.30;;
20655;SDS011;10487;53.320;8.672;2023-04-09T15:11:33;0.40;;;0.40;;
20655;SDS011;10487;53.320;8.672;2023-04-09T15:14:34;0.73;;;0.70;;
20655;SDS011;10487;53.320;8.672;2023-04-09T15:17:36;1.42;;;1.17;;
20655;SDS011;10487;53.320;8.672;2023-04-09T15:20:38;1.15;;;0.88;;
20655;SDS011;10487;53.320;8.672;2023-04-09T15:23:40;0.77;;;0.68;;
20655;SDS011;10487;53.320;8.672;2023-04-09T15:26:42;0.73;;;0.70;;
20655;SDS011;10487;53.320;8.672;2023-04-09T15:29:43;0.68;;;0.60;;
20655;SDS011;10487;53.320;8.672;2023-04-09T15:32:45;0.40;;;0.40;;
20655;SDS011;10487;53.320;8.672;2023-04-09T15:35:47;0.30;;;0.30;;
20655;SDS011;10487;53.320;8.672;2023-04-09T15:38:51;0.40;;;0.32;;
20655;SDS011;10487;53.320;8.672;2023-04-09T15:41:54;0.40;;;0.40;;
20655;SDS011;10487;53.320;8.672;2023-04-09T15:44:59;0.40;;;0.40;;
20655;SDS011;10487;53.320;8.672;2023-04-09T15:48:00;0.40;;;0.40;;
20655;SDS011;10487;53.320;8.672;2023-04-09T15:51:02;0.30;;;0.30;;
20655;SDS011;10487;53.320;8.672;2023-04-09T15:54:05;0.32;;;0.32;;
20655;SDS011;10487;53.320;8.672;2023-04-09T15:57:06;0.40;;;0.40;;
20655;SDS011;10487;53.320;8.672;2023-04-09T16:00:08;0.25;;;0.20;;
20655;SDS011;10487;53.320;8.672;2023-04-09T16:03:11;0.30;;;0.30;;
20655;SDS011;10487;53.320;8.672;2023-04-09T16:06:12;0.25;;;0.25;;
20655;SDS011;10487;53.320;8.672;2023-04-09T16:09:14;0.20;;;0.20;;
20655;SDS011;10487;53.320;8.672;2023-04-09T16:12:16;1.33;;;0.20;;
20655;SDS011;10487;53.320;8.672;2023-04-09T16:15:18;0.20;;;0.20;;
20655;SDS011;10487;53.320;8.672;2023-04-09T16:18:19;0.30;;;0.30;;
20655;SDS011;10487;53.320;8.672;2023-04-09T16:21:21;0.28;;;0.28;;
20655;SDS011;10487;53.320;8.672;2023-04-09T16:24:23;0.32;;;0.30;;
20655;SDS011;10487;53.320;8.672;2023-04-09T16:27:24;0.30;;;0.30;;
20655;SDS011;10487;53.320;8.672;2023-04-09T16:30:26;0.20;;;0.20;;
20655;SDS011;10487;53.320;8.672;2023-04-09T16:33:29;0.40;;;0.30;;
20655;SDS011;10487;53.320;8.672;2023-04-09T16:36:31;0.28;;;0.28;;
20655;SDS011;10487;53.320;8.672;2023-04-09T16:39:33;0.20;;;0.20;;
20655;SDS011;10487;53.320;8.672;2023-04-09T16:42:35;0.40;;;0.40;;
20655;SDS011;10487;53.320;8.672;2023-04-09T16:45:37;0.32;;;0.30;;
20655;SDS011;10487;53.320;8.672;2023-04-09T16:48:38;0.40;;;0.30;;
20655;SDS011;10487;53.320;8.672;2023-04-09T16:51:42;0.20;;;0.20;;
20655;SDS011;10487;53.320;8.672;2023-04-09T16:54:43;0.20;;;0.20;;
20655;SDS011;10487;53.320;8.672;2023-04-09T16:57:45;0.40;;;0.40;;
20655;SDS011;10487;53.320;8.672;2023-04-09T17:00:47;0.20;;;0.20;;
20655;SDS011;10487;53.320;8.672;2023-04-09T17:03:52;0.47;;;0.40;;
20655;SDS011;10487;53.320;8.672;2023-04-09T17:06:54;0.30;;;0.30;;
20655;SDS011;10487;53.320;8.672;2023-04-09T17:09:55;0.95;;;0.30;;
20655;SDS011;10487;53.320;8.672;2023-04-09T17:12:57;0.20;;;0.20;;
20655;SDS011;10487;53.320;8.672;2023-04-09T17:15:59;0.30;;;0.30;;
20655;SDS011;10487;53.320;8.672;2023-04-09T17:19:01;0.20;;;0.20;;
20655;SDS011;10487;53.320;8.672;2023-04-09T17:22:03;0.30;;;0.30;;
20655;SDS011;10487;53.320;8.672;2023-04-09T17:25:06;0.40;;;0.30;;
20655;SDS011;10487;53.320;8.672;2023-04-09T17:28:07;0.40;;;0.30;;
20655;SDS011;10487;53.320;8.672;2023-04-09T17:31:12;0.38;;;0.30;;
20655;SDS011;10487;53.320;8.672;2023-04-09T17:34:16;0.38;;;0.30;;
20655;SDS011;10487;53.320;8.672;2023-04-09T17:37:18;0.20;;;0.20;;
20655;SDS011;10487;53.320;8.672;2023-04-09T17:40:19;0.60;;;0.40;;
20655;SDS011;10487;53.320;8.672;2023-04-09T17:43:22;2.70;;;1.67;;
20655;SDS011;10487;53.320;8.672;2023-04-09T17:46:24;3.38;;;2.38;;
20655;SDS011;10487;53.320;8.672;2023-04-09T17:49:28;2.72;;;2.30;;
20655;SDS011;10487;53.320;8.672;2023-04-09T17:52:31;2.58;;;1.80;;
20655;SDS011;10487;53.320;8.672;2023-04-09T17:55:36;1.70;;;1.40;;
20655;SDS011;10487;53.320;8.672;2023-04-09T17:58:38;1.17;;;0.98;;
20655;SDS011;10487;53.320;8.672;2023-04-09T18:01:40;1.08;;;0.88;;
20655;SDS011;10487;53.320;8.672;2023-04-09T18:04:42;0.88;;;0.68;;
20655;SDS011;10487;53.320;8.672;2023-04-09T18:07:44;1.00;;;0.70;;
20655;SDS011;10487;53.320;8.672;2023-04-09T18:10:46;0.98;;;0.80;;
20655;SDS011;10487;53.320;8.672;2023-04-09T18:14:11;0.85;;;0.65;;
20655;SDS011;10487;53.320;8.672;2023-04-09T18:17:13;1.70;;;1.40;;
20655;SDS011;10487;53.320;8.672;2023-04-09T18:20:16;1.23;;;1.05;;
20655;SDS011;10487;53.320;8.672;2023-04-09T18:23:18;1.73;;;1.40;;
20655;SDS011;10487;53.320;8.672;2023-04-09T18:26:19;1.08;;;0.90;;
20655;SDS011;10487;53.320;8.672;2023-04-09T18:29:21;1.20;;;0.70;;
20655;SDS011;10487;53.320;8.672;2023-04-09T18:32:23;1.92;;;1.20;;
20655;SDS011;10487;53.320;8.672;2023-04-09T18:35:25;1.00;;;0.80;;
20655;SDS011;10487;53.320;8.672;2023-04-09T18:38:27;1.00;;;0.80;;